createdAt,value
2022-10-20T00:02:07.635Z,40.83
2022-10-20T00:04:35.124Z,43.50
2022-10-20T00:07:02.040Z,38.15
2022-10-20T00:09:29.032Z,46.47
2022-10-20T00:11:56.080Z,45.72
2022-10-20T00:14:23.087Z,41.20
2022-10-20T00:16:50.033Z,43.38
2022-10-20T00:19:16.923Z,42.13
2022-10-20T00:21:43.819Z,41.20
2022-10-20T00:24:10.844Z,39.35
2022-10-20T00:26:37.809Z,45.30
2022-10-20T00:29:04.927Z,41.55
2022-10-20T00:31:32.250Z,44.67
2022-10-20T00:33:59.170Z,40.75
2022-10-20T00:36:26.240Z,42.15
2022-10-20T00:39:00.265Z,41.10
2022-10-20T00:41:28.569Z,40.25
2022-10-20T00:44:01.232Z,40.25
2022-10-20T00:46:37.674Z,38.40
2022-10-20T00:49:24.286Z,40.58
2022-10-20T00:51:53.131Z,43.70
2022-10-20T00:54:24.573Z,44.30
2022-10-20T00:56:56.316Z,40.35
2022-10-20T00:59:28.480Z,37.92
2022-10-20T01:01:56.330Z,38.97
2022-10-20T01:04:24.829Z,40.10
2022-10-20T01:06:51.781Z,39.30
2022-10-20T01:09:19.912Z,38.67
2022-10-20T01:12:04.578Z,40.95
2022-10-20T01:14:43.377Z,40.63
2022-10-20T01:17:53.799Z,42.05
2022-10-20T01:20:51.158Z,42.95
2022-10-20T01:23:36.899Z,45.17
2022-10-20T01:26:18.182Z,45.00
2022-10-20T01:28:56.689Z,41.47
2022-10-20T01:31:45.373Z,44.50
2022-10-20T01:34:17.663Z,45.38
2022-10-20T01:37:10.662Z,45.53
2022-10-20T01:39:53.759Z,45.50
2022-10-20T01:42:24.386Z,49.85
2022-10-20T01:44:55.431Z,43.25
2022-10-20T01:47:26.284Z,48.47
2022-10-20T01:49:54.364Z,44.60
2022-10-20T01:52:22.240Z,42.03
2022-10-20T01:54:49.392Z,45.55
2022-10-20T01:58:13.553Z,48.45
2022-10-20T02:00:41.776Z,49.38
2022-10-20T02:03:34.118Z,44.22
2022-10-20T02:06:15.570Z,48.38
2022-10-20T02:08:53.982Z,42.65
2022-10-20T02:11:50.037Z,44.85
2022-10-20T02:14:20.043Z,44.67
2022-10-20T02:16:50.974Z,43.35
2022-10-20T02:19:22.333Z,42.58
2022-10-20T02:21:52.651Z,43.42
2022-10-20T02:24:24.768Z,43.45
2022-10-20T02:26:54.115Z,44.13
2022-10-20T02:29:27.101Z,42.42
2022-10-20T02:31:55.812Z,42.45
2022-10-20T02:34:26.295Z,41.53
2022-10-20T02:36:57.874Z,44.05
2022-10-20T02:39:27.681Z,42.60
2022-10-20T02:41:55.039Z,42.85
2022-10-20T02:44:24.727Z,40.58
2022-10-20T02:46:51.771Z,40.33
2022-10-20T02:49:20.441Z,39.65
2022-10-20T02:51:47.504Z,41.08
2022-10-20T02:54:14.420Z,40.55
2022-10-20T02:56:41.332Z,40.78
2022-10-20T02:59:15.445Z,42.67
2022-10-20T03:01:43.132Z,38.58
2022-10-20T03:04:10.223Z,38.22
2022-10-20T03:06:37.156Z,41.40
2022-10-20T03:09:05.552Z,35.30
2022-10-20T03:11:32.589Z,39.40
2022-10-20T03:13:59.676Z,37.92
2022-10-20T03:16:26.607Z,36.60
2022-10-20T03:18:53.605Z,38.97
2022-10-20T03:21:23.589Z,35.53
2022-10-20T03:23:50.596Z,35.10
2022-10-20T03:26:17.720Z,33.88
2022-10-20T03:28:44.659Z,32.53
2022-10-20T03:31:11.781Z,36.20
2022-10-20T03:33:38.753Z,35.58
2022-10-20T03:36:06.126Z,32.35
2022-10-20T03:38:33.042Z,36.03
2022-10-20T03:41:03.086Z,33.95
2022-10-20T03:43:29.986Z,33.05
2022-10-20T03:46:08.127Z,34.58
2022-10-20T03:48:36.030Z,38.65
2022-10-20T03:51:03.624Z,36.17
2022-10-20T03:53:31.194Z,33.20
2022-10-20T03:55:58.376Z,31.98
2022-10-20T03:58:25.356Z,32.03
2022-10-20T04:00:52.386Z,35.42
2022-10-20T04:03:19.292Z,33.83
2022-10-20T04:05:47.239Z,30.95
2022-10-20T04:10:42.921Z,33.47
2022-10-20T04:13:09.792Z,31.48
2022-10-20T04:15:36.760Z,28.33
2022-10-20T04:18:03.766Z,30.30
2022-10-20T04:20:32.211Z,26.63
2022-10-20T04:22:59.094Z,31.05
2022-10-20T04:25:26.080Z,31.75
2022-10-20T04:27:53.090Z,33.63
2022-10-20T04:30:20.000Z,32.40
2022-10-20T04:32:46.992Z,27.77
2022-10-20T04:35:13.922Z,28.33
2022-10-20T04:37:40.892Z,29.05
2022-10-20T04:40:08.281Z,29.25
2022-10-20T04:42:35.231Z,27.08
2022-10-20T04:45:02.218Z,29.40
2022-10-20T04:47:33.884Z,29.38
2022-10-20T04:50:01.094Z,31.75
2022-10-20T04:52:29.534Z,29.45
2022-10-20T04:54:56.533Z,29.48
2022-10-20T04:57:23.873Z,27.38
2022-10-20T04:59:50.879Z,30.52
2022-10-20T05:02:20.657Z,29.40
2022-10-20T05:04:47.566Z,27.83
2022-10-20T05:07:14.552Z,27.98
2022-10-20T05:09:41.734Z,30.13
2022-10-20T05:12:08.747Z,33.20
2022-10-20T05:14:35.723Z,29.02
2022-10-20T05:17:05.237Z,26.85
2022-10-20T05:19:34.763Z,32.60
2022-10-20T05:22:02.994Z,31.42
2022-10-20T05:24:30.154Z,30.77
2022-10-20T05:26:58.251Z,29.70
2022-10-20T05:29:25.184Z,31.25
2022-10-20T05:31:52.148Z,29.98
2022-10-20T05:34:19.107Z,29.48
2022-10-20T05:36:46.056Z,28.77
2022-10-20T05:39:13.120Z,33.17
2022-10-20T05:41:40.104Z,31.23
2022-10-20T05:44:09.043Z,32.70
2022-10-20T05:46:41.740Z,34.22
2022-10-20T05:49:14.400Z,35.40
2022-10-20T05:51:41.386Z,37.97
2022-10-20T05:54:11.912Z,35.35
2022-10-20T05:56:38.982Z,36.65
2022-10-20T05:59:06.945Z,37.58
2022-10-20T06:01:48.267Z,41.17
2022-10-20T06:04:24.502Z,41.20
2022-10-20T06:06:52.527Z,41.47
2022-10-20T06:09:21.086Z,39.53
2022-10-20T06:11:48.329Z,41.50
2022-10-20T06:14:15.408Z,39.78
2022-10-20T06:16:42.434Z,38.47
2022-10-20T06:19:10.316Z,37.30
2022-10-20T06:21:38.305Z,37.38
2022-10-20T06:24:06.790Z,35.40
2022-10-20T06:26:38.115Z,38.90
2022-10-20T06:29:07.141Z,37.22
2022-10-20T06:31:42.363Z,34.80
2022-10-20T06:34:13.341Z,39.88
2022-10-20T06:36:42.097Z,32.85
2022-10-20T06:39:13.575Z,39.55
2022-10-20T06:41:40.637Z,34.67
2022-10-20T06:44:14.700Z,38.90
2022-10-20T06:46:41.636Z,39.22
2022-10-20T06:49:09.592Z,37.53
2022-10-20T06:51:37.484Z,41.58
2022-10-20T06:54:05.398Z,40.45
2022-10-20T06:56:34.707Z,39.60
2022-10-20T06:59:02.977Z,37.15
2022-10-20T07:01:35.429Z,40.80
2022-10-20T07:04:09.983Z,39.03
2022-10-20T07:06:42.353Z,35.50
2022-10-20T07:09:16.432Z,35.80
2022-10-20T07:11:43.764Z,38.63
2022-10-20T07:14:13.629Z,36.22
2022-10-20T07:16:40.814Z,40.47
2022-10-20T07:19:07.952Z,36.17
2022-10-20T07:21:38.324Z,38.90
2022-10-20T07:24:07.978Z,37.00
2022-10-20T07:26:38.101Z,41.70
2022-10-20T07:29:05.923Z,44.75
2022-10-20T07:31:41.919Z,47.03
2022-10-20T07:34:24.959Z,34.80
2022-10-20T07:36:53.725Z,38.72
2022-10-20T07:39:21.047Z,36.45
2022-10-20T07:41:50.945Z,38.60
2022-10-20T07:44:18.118Z,41.08
2022-10-20T07:46:45.170Z,39.72
2022-10-20T07:51:59.080Z,37.30
2022-10-20T07:54:26.119Z,38.42
2022-10-20T07:56:55.732Z,36.50
2022-10-20T07:59:22.690Z,32.58
2022-10-20T08:01:49.744Z,31.30
2022-10-20T08:04:19.495Z,35.30
2022-10-20T08:06:47.241Z,33.42
2022-10-20T08:09:16.233Z,35.47
2022-10-20T08:11:43.187Z,37.42
2022-10-20T08:14:10.418Z,34.70
2022-10-20T08:16:43.385Z,31.13
2022-10-20T08:21:52.228Z,38.30
2022-10-20T08:24:19.192Z,32.83
2022-10-20T08:26:46.357Z,29.67
2022-10-20T08:29:13.478Z,31.73
2022-10-20T08:31:40.636Z,34.95
2022-10-20T08:34:08.129Z,35.25
2022-10-20T08:36:37.190Z,31.38
2022-10-20T08:39:06.168Z,31.92
2022-10-20T08:42:06.918Z,41.88
2022-10-20T08:44:34.919Z,38.33
2022-10-20T08:47:12.851Z,34.55
2022-10-20T08:49:39.877Z,41.97
2022-10-20T08:52:15.358Z,36.58
2022-10-20T08:54:42.405Z,39.35
2022-10-20T08:57:23.606Z,35.17
2022-10-20T08:59:53.077Z,39.45
2022-10-20T09:02:20.275Z,35.78
2022-10-20T09:04:57.626Z,38.13
2022-10-20T09:07:34.297Z,37.95
2022-10-20T09:10:18.309Z,44.78
2022-10-20T09:12:47.254Z,53.42
2022-10-20T09:15:16.182Z,56.50
2022-10-20T09:17:47.076Z,69.28
2022-10-20T09:20:37.664Z,65.60
2022-10-20T09:23:16.563Z,73.63
2022-10-20T09:25:54.743Z,83.72
2022-10-20T09:28:26.584Z,72.30
2022-10-20T09:30:54.982Z,75.28
2022-10-20T09:33:34.190Z,85.28
2022-10-20T09:36:05.663Z,80.22
2022-10-20T09:38:37.932Z,73.82
2022-10-20T09:41:13.464Z,73.38
2022-10-20T09:46:11.122Z,66.22
2022-10-20T09:48:47.933Z,62.65
2022-10-20T09:51:26.629Z,64.43
2022-10-20T09:53:55.347Z,59.95
2022-10-20T09:56:42.782Z,64.68
2022-10-20T09:59:25.414Z,59.72
2022-10-20T10:01:53.421Z,64.40
2022-10-20T10:04:33.430Z,59.65
2022-10-20T10:07:00.843Z,59.67
2022-10-20T10:09:31.916Z,64.30
2022-10-20T10:12:05.360Z,65.80
2022-10-20T10:14:35.110Z,62.60
2022-10-20T10:17:02.508Z,61.50
2022-10-20T10:19:33.753Z,70.03
2022-10-20T10:22:03.009Z,63.88
2022-10-20T10:24:40.930Z,63.20
2022-10-20T10:27:29.744Z,65.40
2022-10-20T10:30:19.462Z,64.80
2022-10-20T10:32:47.758Z,63.38
2022-10-20T10:35:34.371Z,66.55
2022-10-20T10:38:20.351Z,62.55
2022-10-20T10:41:08.826Z,63.92
2022-10-20T10:43:54.604Z,69.00
2022-10-20T10:46:26.656Z,67.13
2022-10-20T10:48:59.373Z,60.13
2022-10-20T10:51:56.635Z,63.63
2022-10-20T10:54:45.724Z,59.83
2022-10-20T10:57:26.462Z,64.28
2022-10-20T10:59:53.790Z,63.95
2022-10-20T11:02:23.871Z,70.38
2022-10-20T11:05:10.664Z,61.17
2022-10-20T11:08:07.879Z,64.32
2022-10-20T11:10:40.884Z,64.78
2022-10-20T11:13:30.443Z,65.32
2022-10-20T11:16:14.622Z,67.82
2022-10-20T11:19:19.367Z,58.50
2022-10-20T11:21:54.999Z,60.40
2022-10-20T11:24:40.504Z,54.25
2022-10-20T11:27:20.707Z,54.53
2022-10-20T11:30:19.289Z,49.25
2022-10-20T11:33:05.482Z,53.60
2022-10-20T11:35:56.820Z,52.38
2022-10-20T11:38:32.285Z,54.97
2022-10-20T11:41:26.216Z,56.42
2022-10-20T11:44:02.094Z,50.83
2022-10-20T11:46:40.404Z,47.33
2022-10-20T11:49:09.353Z,50.67
2022-10-20T11:52:17.602Z,48.10
2022-10-20T11:54:59.668Z,52.33
2022-10-20T11:57:57.655Z,51.55
2022-10-20T12:00:55.185Z,48.78
2022-10-20T12:03:36.726Z,48.40
2022-10-20T12:06:25.920Z,68.63
2022-10-20T12:08:52.925Z,127.35
2022-10-20T12:11:38.083Z,51.85
2022-10-20T12:14:17.463Z,51.77
2022-10-20T12:16:53.607Z,56.58
2022-10-20T12:19:31.965Z,55.78
2022-10-20T12:22:02.337Z,99.85
2022-10-20T12:24:38.955Z,57.35
2022-10-20T12:27:08.638Z,51.85
2022-10-20T12:29:35.680Z,56.45
2022-10-20T12:32:21.336Z,50.47
2022-10-20T12:34:50.525Z,54.88
2022-10-20T12:37:18.912Z,52.40
2022-10-20T12:39:47.569Z,56.70
2022-10-20T12:42:31.730Z,60.10
2022-10-20T12:45:06.516Z,51.83
2022-10-20T12:47:36.947Z,49.05
2022-10-20T12:50:19.269Z,53.00
2022-10-20T12:52:46.990Z,58.35
2022-10-20T12:55:18.535Z,52.45
2022-10-20T12:57:46.777Z,65.22
2022-10-20T13:00:19.679Z,66.32
2022-10-20T13:03:32.518Z,52.47
2022-10-20T13:06:00.618Z,53.53
2022-10-20T13:08:29.141Z,50.03
2022-10-20T13:10:57.667Z,52.53
2022-10-20T13:13:39.499Z,78.30
2022-10-20T13:16:15.764Z,70.40
2022-10-20T13:18:46.597Z,56.38
2022-10-20T13:21:32.860Z,53.35
2022-10-20T13:24:11.481Z,52.28
2022-10-20T13:26:50.240Z,51.15
2022-10-20T13:29:40.734Z,59.35
2022-10-20T13:32:48.035Z,52.10
2022-10-20T13:35:35.111Z,50.85
2022-10-20T13:38:46.795Z,53.22
2022-10-20T13:41:23.709Z,49.55
2022-10-20T13:44:09.874Z,55.83
2022-10-20T13:47:04.943Z,54.97
2022-10-20T13:49:56.358Z,48.55
2022-10-20T13:52:26.780Z,48.15
2022-10-20T13:54:54.064Z,49.08
2022-10-20T13:57:29.568Z,47.58
2022-10-20T14:00:02.081Z,49.65
2022-10-20T14:02:32.236Z,44.25
2022-10-20T14:05:13.078Z,57.20
2022-10-20T14:07:44.445Z,51.30
2022-10-20T14:10:27.933Z,53.13
2022-10-20T14:12:55.741Z,48.55
2022-10-20T14:15:34.695Z,56.40
2022-10-20T14:18:07.938Z,52.08
2022-10-20T14:20:41.730Z,64.28
2022-10-20T14:23:10.866Z,61.00
2022-10-20T14:25:39.505Z,60.78
2022-10-20T14:28:07.645Z,58.25
2022-10-20T14:30:38.729Z,47.30
2022-10-20T14:33:14.467Z,57.35
2022-10-20T14:35:46.231Z,50.50
2022-10-20T14:38:20.620Z,48.63
2022-10-20T14:40:56.676Z,55.38
2022-10-20T14:43:47.541Z,50.50
2022-10-20T14:46:27.930Z,46.70
2022-10-20T14:48:55.242Z,51.33
2022-10-20T14:51:44.921Z,50.28
2022-10-20T14:54:21.060Z,51.95
2022-10-20T14:57:01.552Z,50.70
2022-10-20T14:59:30.043Z,53.58
2022-10-20T15:02:12.979Z,51.13
2022-10-20T15:04:44.580Z,49.88
2022-10-20T15:07:19.694Z,54.22
2022-10-20T15:09:53.207Z,55.50
2022-10-20T15:12:20.156Z,49.03
2022-10-20T15:14:56.048Z,52.42
2022-10-20T15:17:38.177Z,52.38
2022-10-20T15:20:33.403Z,45.85
2022-10-20T15:23:09.857Z,153.13
2022-10-20T15:25:53.288Z,210.15
2022-10-20T15:28:29.754Z,67.20
2022-10-20T15:30:57.927Z,55.45
2022-10-20T15:33:24.991Z,52.78
2022-10-20T15:35:53.219Z,51.67
2022-10-20T15:38:20.650Z,53.05
2022-10-20T15:40:48.453Z,55.92
2022-10-20T15:43:19.233Z,58.63
2022-10-20T15:46:04.169Z,50.00
2022-10-20T15:48:31.193Z,46.10
2022-10-20T15:50:59.260Z,51.38
2022-10-20T15:53:29.317Z,53.28
2022-10-20T15:55:56.262Z,47.13
2022-10-20T15:58:23.326Z,49.28
2022-10-20T16:00:53.064Z,46.08
2022-10-20T16:03:20.208Z,52.00
2022-10-20T16:05:47.643Z,48.92
2022-10-20T16:10:46.787Z,48.90
2022-10-20T16:13:15.767Z,50.13
2022-10-20T16:15:42.739Z,50.38
2022-10-20T16:18:10.919Z,52.38
2022-10-20T16:20:37.856Z,46.47
2022-10-20T16:23:04.938Z,49.92
2022-10-20T16:25:32.121Z,50.53
2022-10-20T16:27:59.168Z,53.20
2022-10-20T16:30:26.141Z,50.22
2022-10-20T16:32:53.082Z,57.28
2022-10-20T16:35:21.510Z,55.75
2022-10-20T16:37:48.645Z,49.88
2022-10-20T16:40:15.823Z,48.90
2022-10-20T16:42:42.856Z,53.70
2022-10-20T16:45:10.210Z,51.85
2022-10-20T16:47:38.076Z,54.28
2022-10-20T16:50:05.830Z,49.50
2022-10-20T16:52:33.284Z,48.63
2022-10-20T16:55:00.264Z,51.45
2022-10-20T16:57:28.258Z,54.55
2022-10-20T16:59:55.315Z,52.92
2022-10-20T17:02:23.273Z,47.15
2022-10-20T17:04:50.850Z,49.92
2022-10-20T17:07:19.102Z,54.25
2022-10-20T17:09:46.059Z,53.33
2022-10-20T17:12:13.170Z,48.67
2022-10-20T17:14:40.796Z,54.05
2022-10-20T17:17:07.796Z,53.17
2022-10-20T17:19:34.919Z,49.50
2022-10-20T17:22:02.137Z,48.13
2022-10-20T17:24:29.357Z,48.85
2022-10-20T17:26:56.345Z,51.30
2022-10-20T17:29:25.942Z,48.42
2022-10-20T17:31:53.272Z,51.00
2022-10-20T17:34:23.222Z,52.25
2022-10-20T17:36:50.206Z,50.65
2022-10-20T17:39:17.374Z,51.00
2022-10-20T17:41:44.488Z,50.95
2022-10-20T17:44:11.700Z,46.83
2022-10-20T17:46:38.934Z,52.05
2022-10-20T17:49:06.429Z,56.42
2022-10-20T17:51:36.371Z,54.20
2022-10-20T17:54:04.165Z,52.85
2022-10-20T17:56:35.888Z,51.63
2022-10-20T17:59:04.889Z,51.30
2022-10-20T18:01:34.388Z,46.65
2022-10-20T18:04:15.955Z,56.20
2022-10-20T18:06:45.006Z,52.53
2022-10-20T18:09:17.459Z,51.50
2022-10-20T18:11:51.123Z,52.13
2022-10-20T18:14:18.403Z,51.65
2022-10-20T18:16:45.965Z,53.25
2022-10-20T18:19:18.995Z,51.65
2022-10-20T18:21:46.523Z,50.22
2022-10-20T18:24:15.427Z,52.03
2022-10-20T18:26:42.711Z,52.25
2022-10-20T18:29:10.735Z,55.95
2022-10-20T18:31:39.706Z,55.35
2022-10-20T18:34:09.319Z,57.33
2022-10-20T18:36:40.464Z,59.17
2022-10-20T18:39:10.943Z,50.78
2022-10-20T18:41:40.200Z,54.58
2022-10-20T18:44:11.307Z,53.53
2022-10-20T18:46:39.513Z,110.47
2022-10-20T18:49:07.707Z,62.25
2022-10-20T18:51:35.661Z,55.13
2022-10-20T18:54:06.269Z,50.60
2022-10-20T18:56:33.527Z,50.58
2022-10-20T18:59:13.792Z,49.58
2022-10-20T19:01:41.206Z,49.30
2022-10-20T19:04:09.886Z,52.58
2022-10-20T19:06:43.068Z,53.67
2022-10-20T19:09:14.493Z,56.03
2022-10-20T19:11:42.318Z,51.38
2022-10-20T19:14:10.342Z,54.95
2022-10-20T19:16:39.076Z,55.38
2022-10-20T19:19:09.249Z,57.45
2022-10-20T19:21:36.888Z,59.95
2022-10-20T19:24:09.564Z,55.15
2022-10-20T19:26:40.877Z,55.65
2022-10-20T19:29:18.588Z,58.03
2022-10-20T19:31:54.295Z,57.42
2022-10-20T19:34:24.738Z,59.58
2022-10-20T19:36:52.314Z,51.10
2022-10-20T19:39:32.516Z,57.85
2022-10-20T19:42:02.693Z,62.33
2022-10-20T19:44:30.497Z,63.13
2022-10-20T19:46:59.785Z,59.45
2022-10-20T19:49:27.845Z,57.35
2022-10-20T19:51:55.151Z,55.88
2022-10-20T19:54:22.437Z,58.60
2022-10-20T19:56:49.959Z,58.67
2022-10-20T20:02:03.539Z,55.47
2022-10-20T20:04:31.118Z,59.88
2022-10-20T20:07:02.169Z,55.13
2022-10-20T20:09:30.799Z,55.85
2022-10-20T20:11:58.380Z,57.28
2022-10-20T20:14:26.081Z,53.88
2022-10-20T20:16:54.081Z,65.43
2022-10-20T20:19:21.164Z,59.85
2022-10-20T20:21:48.586Z,52.92
2022-10-20T20:24:15.853Z,54.20
2022-10-20T20:26:44.698Z,58.92
2022-10-20T20:29:11.990Z,55.78
2022-10-20T20:31:39.396Z,60.30
2022-10-20T20:34:06.402Z,58.50
2022-10-20T20:36:33.402Z,57.25
2022-10-20T20:39:00.445Z,53.08
2022-10-20T20:41:30.222Z,57.40
2022-10-20T20:43:57.274Z,61.50
2022-10-20T20:46:27.544Z,57.67
2022-10-20T20:48:54.731Z,57.65
2022-10-20T20:51:21.778Z,56.95
2022-10-20T20:53:48.766Z,62.15
2022-10-20T20:56:21.958Z,57.50
2022-10-20T20:58:55.012Z,59.97
2022-10-20T21:01:27.105Z,57.28
2022-10-20T21:03:56.351Z,63.60
2022-10-20T21:06:28.936Z,61.70
2022-10-20T21:09:01.503Z,60.75
2022-10-20T21:11:28.694Z,65.00
2022-10-20T21:13:58.694Z,63.60
2022-10-20T21:16:34.746Z,63.70
2022-10-20T21:19:09.755Z,71.90
2022-10-20T21:21:39.909Z,62.55
2022-10-20T21:24:07.153Z,70.47
2022-10-20T21:26:34.198Z,67.65
2022-10-20T21:29:01.203Z,68.28
2022-10-20T21:31:31.634Z,70.72
2022-10-20T21:34:01.351Z,67.75
2022-10-20T21:36:30.005Z,68.97
2022-10-20T21:38:58.280Z,66.32
2022-10-20T21:41:31.408Z,68.70
2022-10-20T21:44:00.504Z,68.35
2022-10-20T21:46:33.247Z,63.17
2022-10-20T21:49:05.709Z,65.60
2022-10-20T21:51:41.328Z,71.97
2022-10-20T21:54:12.389Z,69.82
2022-10-20T21:56:41.398Z,64.43
2022-10-20T21:59:18.104Z,62.30
2022-10-20T22:01:46.415Z,68.63
2022-10-20T22:04:13.755Z,66.53
2022-10-20T22:06:41.446Z,66.68
2022-10-20T22:09:09.090Z,66.15
2022-10-20T22:11:39.511Z,66.57
2022-10-20T22:14:06.904Z,65.45
2022-10-20T22:16:36.621Z,64.50
2022-10-20T22:19:10.859Z,74.50
2022-10-20T22:21:40.018Z,67.35
2022-10-20T22:24:07.992Z,72.57
2022-10-20T22:26:35.770Z,69.00
2022-10-20T22:29:04.885Z,65.03
2022-10-20T22:31:32.001Z,68.30
2022-10-20T22:33:59.644Z,62.75
2022-10-20T22:36:27.427Z,67.35
2022-10-20T22:38:54.572Z,63.17
2022-10-20T22:41:21.619Z,64.68
2022-10-20T22:43:48.556Z,65.30
2022-10-20T22:46:16.035Z,65.32
2022-10-20T22:48:44.122Z,69.07
2022-10-20T22:51:11.266Z,66.95
2022-10-20T22:53:39.015Z,68.70
2022-10-20T22:56:14.821Z,67.63
2022-10-20T22:58:42.334Z,71.45
2022-10-20T23:01:14.723Z,68.57
2022-10-20T23:03:42.034Z,68.68
2022-10-20T23:06:24.594Z,68.47
2022-10-20T23:08:53.970Z,67.15
2022-10-20T23:11:22.748Z,68.15
2022-10-20T23:13:58.851Z,63.95
2022-10-20T23:16:26.006Z,65.28
2022-10-20T23:18:53.326Z,68.20
2022-10-20T23:21:20.293Z,71.47
2022-10-20T23:23:47.292Z,73.43
2022-10-20T23:26:14.463Z,68.63
2022-10-20T23:28:41.655Z,63.67
2022-10-20T23:31:11.277Z,63.80
2022-10-20T23:33:40.424Z,70.03
2022-10-20T23:36:07.964Z,72.63
2022-10-20T23:38:35.075Z,65.88
2022-10-20T23:41:02.258Z,66.18
2022-10-20T23:43:29.363Z,71.63
2022-10-20T23:45:56.371Z,69.97
2022-10-20T23:48:23.394Z,71.45
2022-10-20T23:50:50.697Z,71.95
2022-10-20T23:53:17.837Z,72.97
2022-10-20T23:55:45.067Z,69.93
2022-10-20T23:58:12.110Z,73.68
